sensor_id;sensor_type;location;lat;lon;timestamp;pressure;altitude;pressure_sealevel;temperature;humidity
38163;BME280;23977;53.078;18.248;2023-05-22T00:01:40;101764.34;;;9.67;100.00
38163;BME280;23977;53.078;18.248;2023-05-22T00:04:08;101784.91;;;9.65;100.00
38163;BME280;23977;53.078;18.248;2023-05-22T00:06:46;101735.41;;;9.52;100.00
38163;BME280;23977;53.078;18.248;2023-05-22T00:09:13;101763.69;;;9.53;100.00
38163;BME280;23977;53.078;18.248;2023-05-22T00:11:40;101755.53;;;9.45;100.00
38163;BME280;23977;53.078;18.248;2023-05-22T00:14:05;101749.78;;;9.29;100.00
38163;BME280;23977;53.078;18.248;2023-05-22T00:16:31;101731.44;;;9.04;100.00
38163;BME280;23977;53.078;18.248;2023-05-22T00:18:56;101783.06;;;9.44;100.00
38163;BME280;23977;53.078;18.248;2023-05-22T00:21:25;101758.69;;;9.39;100.00
38163;BME280;23977;53.078;18.248;2023-05-22T00:23:52;101781.59;;;9.51;100.00
38163;BME280;23977;53.078;18.248;2023-05-22T00:26:19;101753.31;;;9.50;100.00
38163;BME280;23977;53.078;18.248;2023-05-22T00:28:46;101771.97;;;9.39;100.00
38163;BME280;23977;53.078;18.248;2023-05-22T00:31:12;101765.97;;;9.25;100.00
38163;BME280;23977;53.078;18.248;2023-05-22T00:33:37;101735.16;;;9.02;100.00
38163;BME280;23977;53.078;18.248;2023-05-22T00:36:03;101751.94;;;9.02;100.00
38163;BME280;23977;53.078;18.248;2023-05-22T00:38:30;101776.03;;;9.11;100.00
38163;BME280;23977;53.078;18.248;2023-05-22T00:41:01;101751.22;;;9.00;100.00
38163;BME280;23977;53.078;18.248;2023-05-22T00:43:27;101717.25;;;8.83;100.00
38163;BME280;23977;53.078;18.248;2023-05-22T00:45:53;101726.66;;;8.87;100.00
38163;BME280;23977;53.078;18.248;2023-05-22T00:48:22;101746.75;;;9.01;100.00
38163;BME280;23977;53.078;18.248;2023-05-22T00:50:52;101753.50;;;9.05;100.00
38163;BME280;23977;53.078;18.248;2023-05-22T00:53:20;101743.63;;;8.96;100.00
38163;BME280;23977;53.078;18.248;2023-05-22T00:55:46;101753.03;;;9.00;100.00
38163;BME280;23977;53.078;18.248;2023-05-22T00:58:14;101719.78;;;8.84;100.00
38163;BME280;23977;53.078;18.248;2023-05-22T01:00:41;101764.59;;;9.10;100.00
38163;BME280;23977;53.078;18.248;2023-05-22T01:03:08;101755.44;;;9.03;100.00
38163;BME280;23977;53.078;18.248;2023-05-22T01:05:35;101721.34;;;8.76;100.00
38163;BME280;23977;53.078;18.248;2023-05-22T01:08:02;101661.97;;;8.33;100.00
38163;BME280;23977;53.078;18.248;2023-05-22T01:10:29;101762.69;;;9.01;100.00
38163;BME280;23977;53.078;18.248;2023-05-22T01:15:50;101752.41;;;9.07;100.00
38163;BME280;23977;53.078;18.248;2023-05-22T01:21:04;101759.69;;;8.94;100.00
38163;BME280;23977;53.078;18.248;2023-05-22T01:23:45;101689.81;;;8.50;100.00
38163;BME280;23977;53.078;18.248;2023-05-22T01:31:42;101761.75;;;8.91;100.00
38163;BME280;23977;53.078;18.248;2023-05-22T01:34:10;101740.28;;;8.82;100.00
38163;BME280;23977;53.078;18.248;2023-05-22T01:36:37;101758.34;;;9.00;100.00
38163;BME280;23977;53.078;18.248;2023-05-22T01:39:03;101745.81;;;8.91;100.00
38163;BME280;23977;53.078;18.248;2023-05-22T01:41:32;101734.13;;;8.93;100.00
38163;BME280;23977;53.078;18.248;2023-05-22T01:43:59;101750.97;;;9.03;100.00
38163;BME280;23977;53.078;18.248;2023-05-22T01:46:26;101726.31;;;8.80;100.00
38163;BME280;23977;53.078;18.248;2023-05-22T01:48:52;101755.59;;;8.90;100.00
38163;BME280;23977;53.078;18.248;2023-05-22T01:51:22;101764.88;;;8.96;100.00
38163;BME280;23977;53.078;18.248;2023-05-22T01:54:00;101747.16;;;8.85;100.00
38163;BME280;23977;53.078;18.248;2023-05-22T01:56:37;101739.78;;;8.88;100.00
38163;BME280;23977;53.078;18.248;2023-05-22T01:59:10;101765.59;;;8.98;100.00
38163;BME280;23977;53.078;18.248;2023-05-22T02:01:40;101760.06;;;8.89;100.00
38163;BME280;23977;53.078;18.248;2023-05-22T02:04:07;101764.66;;;8.87;100.00
38163;BME280;23977;53.078;18.248;2023-05-22T02:06:34;101770.59;;;8.80;100.00
38163;BME280;23977;53.078;18.248;2023-05-22T02:09:01;101759.38;;;8.76;100.00
38163;BME280;23977;53.078;18.248;2023-05-22T02:11:30;101702.81;;;8.42;100.00
38163;BME280;23977;53.078;18.248;2023-05-22T02:13:57;101705.13;;;8.35;100.00
38163;BME280;23977;53.078;18.248;2023-05-22T02:16:22;101750.44;;;8.66;100.00
38163;BME280;23977;53.078;18.248;2023-05-22T02:18:48;101743.25;;;8.57;100.00
38163;BME280;23977;53.078;18.248;2023-05-22T02:21:14;101754.44;;;8.60;100.00
38163;BME280;23977;53.078;18.248;2023-05-22T02:23:39;101760.59;;;8.61;100.00
38163;BME280;23977;53.078;18.248;2023-05-22T02:26:05;101741.66;;;8.65;100.00
38163;BME280;23977;53.078;18.248;2023-05-22T02:28:31;101755.25;;;8.83;100.00
38163;BME280;23977;53.078;18.248;2023-05-22T02:30:57;101740.59;;;9.00;100.00
38163;BME280;23977;53.078;18.248;2023-05-22T02:33:23;101737.63;;;8.82;100.00
38163;BME280;23977;53.078;18.248;2023-05-22T02:35:49;101725.59;;;8.67;100.00
38163;BME280;23977;53.078;18.248;2023-05-22T02:38:14;101741.28;;;8.81;100.00
38163;BME280;23977;53.078;18.248;2023-05-22T02:40:40;101649.56;;;8.33;100.00
38163;BME280;23977;53.078;18.248;2023-05-22T02:43:05;101749.28;;;9.02;100.00
38163;BME280;23977;53.078;18.248;2023-05-22T02:45:31;101708.31;;;8.84;100.00
38163;BME280;23977;53.078;18.248;2023-05-22T02:47:57;101727.44;;;8.99;100.00
38163;BME280;23977;53.078;18.248;2023-05-22T02:50:24;101727.88;;;9.15;100.00
38163;BME280;23977;53.078;18.248;2023-05-22T02:52:49;101729.44;;;9.18;100.00
38163;BME280;23977;53.078;18.248;2023-05-22T02:55:15;101743.28;;;9.33;100.00
38163;BME280;23977;53.078;18.248;2023-05-22T02:57:41;101745.97;;;9.42;100.00
38163;BME280;23977;53.078;18.248;2023-05-22T03:00:07;101752.09;;;9.54;100.00
38163;BME280;23977;53.078;18.248;2023-05-22T03:02:36;101690.28;;;9.31;100.00
38163;BME280;23977;53.078;18.248;2023-05-22T03:05:06;101707.44;;;9.48;100.00
38163;BME280;23977;53.078;18.248;2023-05-22T03:07:32;101742.34;;;9.86;100.00
38163;BME280;23977;53.078;18.248;2023-05-22T03:09:59;101743.03;;;10.09;100.00
38163;BME280;23977;53.078;18.248;2023-05-22T03:12:24;101702.97;;;10.00;100.00
38163;BME280;23977;53.078;18.248;2023-05-22T03:14:50;101715.13;;;10.24;100.00
38163;BME280;23977;53.078;18.248;2023-05-22T03:17:15;101749.44;;;10.58;100.00
38163;BME280;23977;53.078;18.248;2023-05-22T03:19:41;101743.34;;;11.06;100.00
38163;BME280;23977;53.078;18.248;2023-05-22T03:22:07;101734.38;;;11.46;100.00
38163;BME280;23977;53.078;18.248;2023-05-22T03:24:32;101697.34;;;11.43;100.00
38163;BME280;23977;53.078;18.248;2023-05-22T03:26:58;101693.41;;;11.47;100.00
38163;BME280;23977;53.078;18.248;2023-05-22T03:29:24;101744.84;;;11.77;100.00
38163;BME280;23977;53.078;18.248;2023-05-22T03:31:52;101730.69;;;11.67;100.00
38163;BME280;23977;53.078;18.248;2023-05-22T03:34:17;101699.50;;;11.77;100.00
38163;BME280;23977;53.078;18.248;2023-05-22T03:36:43;101734.59;;;12.30;100.00
38163;BME280;23977;53.078;18.248;2023-05-22T03:39:09;101741.50;;;12.78;100.00
38163;BME280;23977;53.078;18.248;2023-05-22T03:41:35;101709.03;;;13.01;100.00
38163;BME280;23977;53.078;18.248;2023-05-22T03:44:02;101744.28;;;13.58;99.99
38163;BME280;23977;53.078;18.248;2023-05-22T03:46:28;101677.03;;;13.53;97.36
38163;BME280;23977;53.078;18.248;2023-05-22T03:48:54;101741.19;;;13.97;95.70
38163;BME280;23977;53.078;18.248;2023-05-22T03:51:20;101673.91;;;13.58;94.37
38163;BME280;23977;53.078;18.248;2023-05-22T03:53:46;101758.28;;;14.04;93.94
38163;BME280;23977;53.078;18.248;2023-05-22T03:56:12;101714.34;;;13.81;92.80
38163;BME280;23977;53.078;18.248;2023-05-22T03:58:38;101737.88;;;14.03;92.87
38163;BME280;23977;53.078;18.248;2023-05-22T04:01:04;101737.91;;;14.12;92.69
38163;BME280;23977;53.078;18.248;2023-05-22T04:03:30;101702.19;;;13.95;92.46
38163;BME280;23977;53.078;18.248;2023-05-22T04:05:55;101749.56;;;14.37;92.57
38163;BME280;23977;53.078;18.248;2023-05-22T04:08:21;101729.84;;;14.38;92.24
38163;BME280;23977;53.078;18.248;2023-05-22T04:10:47;101746.56;;;14.74;91.74
38163;BME280;23977;53.078;18.248;2023-05-22T04:13:14;101750.00;;;15.09;90.17
38163;BME280;23977;53.078;18.248;2023-05-22T04:15:40;101743.31;;;15.54;88.20
38163;BME280;23977;53.078;18.248;2023-05-22T04:18:10;101718.00;;;16.21;85.52
38163;BME280;23977;53.078;18.248;2023-05-22T04:20:36;101749.69;;;17.66;78.78
38163;BME280;23977;53.078;18.248;2023-05-22T04:23:02;101733.97;;;18.89;71.79
38163;BME280;23977;53.078;18.248;2023-05-22T04:25:27;101716.88;;;19.53;66.49
38163;BME280;23977;53.078;18.248;2023-05-22T04:27:54;101703.06;;;20.40;62.65
38163;BME280;23977;53.078;18.248;2023-05-22T04:30:20;101738.72;;;21.52;58.35
38163;BME280;23977;53.078;18.248;2023-05-22T04:32:46;101737.94;;;22.75;54.15
38163;BME280;23977;53.078;18.248;2023-05-22T04:35:12;101731.72;;;23.57;51.11
38163;BME280;23977;53.078;18.248;2023-05-22T04:37:38;101723.25;;;24.27;47.11
38163;BME280;23977;53.078;18.248;2023-05-22T04:40:10;101690.72;;;25.59;41.13
38163;BME280;23977;53.078;18.248;2023-05-22T04:42:37;101708.38;;;26.61;39.51
38163;BME280;23977;53.078;18.248;2023-05-22T04:45:04;101707.78;;;25.90;41.31
38163;BME280;23977;53.078;18.248;2023-05-22T04:47:30;101715.56;;;26.21;39.63
38163;BME280;23977;53.078;18.248;2023-05-22T04:49:57;101716.50;;;26.15;39.76
38163;BME280;23977;53.078;18.248;2023-05-22T04:52:23;101688.56;;;26.08;38.21
38163;BME280;23977;53.078;18.248;2023-05-22T04:54:48;101708.53;;;26.26;38.04
38163;BME280;23977;53.078;18.248;2023-05-22T04:57:18;101704.69;;;26.38;37.35
38163;BME280;23977;53.078;18.248;2023-05-22T04:59:43;101692.44;;;26.41;38.10
38163;BME280;23977;53.078;18.248;2023-05-22T05:02:10;101697.31;;;26.97;37.12
38163;BME280;23977;53.078;18.248;2023-05-22T05:04:36;101700.13;;;27.36;36.11
38163;BME280;23977;53.078;18.248;2023-05-22T05:07:02;101697.41;;;27.19;36.20
38163;BME280;23977;53.078;18.248;2023-05-22T05:09:28;101691.03;;;27.13;36.01
38163;BME280;23977;53.078;18.248;2023-05-22T05:11:54;101675.19;;;26.81;34.68
38163;BME280;23977;53.078;18.248;2023-05-22T05:14:20;101714.25;;;26.65;35.67
38163;BME280;23977;53.078;18.248;2023-05-22T05:16:46;101698.28;;;26.33;36.27
38163;BME280;23977;53.078;18.248;2023-05-22T05:19:12;101699.50;;;26.66;35.30
38163;BME280;23977;53.078;18.248;2023-05-22T05:21:38;101707.66;;;26.37;36.03
38163;BME280;23977;53.078;18.248;2023-05-22T05:24:04;101646.41;;;26.45;35.42
38163;BME280;23977;53.078;18.248;2023-05-22T05:26:30;101714.59;;;26.85;36.10
38163;BME280;23977;53.078;18.248;2023-05-22T05:28:56;101698.78;;;26.58;35.81
38163;BME280;23977;53.078;18.248;2023-05-22T05:31:21;101706.81;;;25.25;37.49
38163;BME280;23977;53.078;18.248;2023-05-22T05:33:48;101690.16;;;25.33;36.70
38163;BME280;23977;53.078;18.248;2023-05-22T05:36:14;101720.59;;;25.30;37.66
38163;BME280;23977;53.078;18.248;2023-05-22T05:38:40;101706.16;;;24.57;38.74
38163;BME280;23977;53.078;18.248;2023-05-22T05:41:08;101718.63;;;25.19;37.94
38163;BME280;23977;53.078;18.248;2023-05-22T05:43:33;101714.66;;;25.57;37.49
38163;BME280;23977;53.078;18.248;2023-05-22T05:45:59;101702.78;;;26.10;35.61
38163;BME280;23977;53.078;18.248;2023-05-22T05:48:24;101705.94;;;26.48;36.70
38163;BME280;23977;53.078;18.248;2023-05-22T05:50:50;101717.84;;;26.99;35.51
38163;BME280;23977;53.078;18.248;2023-05-22T05:53:16;101702.81;;;26.68;36.00
38163;BME280;23977;53.078;18.248;2023-05-22T05:55:42;101706.16;;;27.21;35.32
38163;BME280;23977;53.078;18.248;2023-05-22T05:58:08;101668.56;;;27.11;36.18
38163;BME280;23977;53.078;18.248;2023-05-22T06:00:34;101684.56;;;26.56;35.20
38163;BME280;23977;53.078;18.248;2023-05-22T06:02:59;101667.75;;;27.10;34.14
38163;BME280;23977;53.078;18.248;2023-05-22T06:05:25;101680.50;;;27.78;33.83
38163;BME280;23977;53.078;18.248;2023-05-22T06:07:51;101700.31;;;28.29;33.19
38163;BME280;23977;53.078;18.248;2023-05-22T06:10:16;101661.00;;;28.95;31.52
38163;BME280;23977;53.078;18.248;2023-05-22T06:12:42;101704.56;;;29.71;30.78
38163;BME280;23977;53.078;18.248;2023-05-22T06:15:09;101695.31;;;31.54;28.13
38163;BME280;23977;53.078;18.248;2023-05-22T06:17:37;101688.19;;;33.32;26.73
38163;BME280;23977;53.078;18.248;2023-05-22T06:20:03;101676.81;;;33.87;25.57
38163;BME280;23977;53.078;18.248;2023-05-22T06:22:31;101647.31;;;33.82;25.04
38163;BME280;23977;53.078;18.248;2023-05-22T06:24:57;101677.66;;;34.63;25.02
38163;BME280;23977;53.078;18.248;2023-05-22T06:27:23;101678.50;;;35.85;24.06
38163;BME280;23977;53.078;18.248;2023-05-22T06:29:49;101663.22;;;36.83;22.25
38163;BME280;23977;53.078;18.248;2023-05-22T06:32:16;101628.50;;;37.75;21.76
38163;BME280;23977;53.078;18.248;2023-05-22T06:34:46;101665.84;;;37.60;21.73
38163;BME280;23977;53.078;18.248;2023-05-22T06:37:11;101653.19;;;40.51;19.83
38163;BME280;23977;53.078;18.248;2023-05-22T06:39:38;101639.69;;;42.26;17.97
38163;BME280;23977;53.078;18.248;2023-05-22T06:42:03;101654.97;;;42.89;17.21
38163;BME280;23977;53.078;18.248;2023-05-22T06:44:29;101665.44;;;41.67;17.63
38163;BME280;23977;53.078;18.248;2023-05-22T06:46:55;101660.03;;;42.39;17.24
38163;BME280;23977;53.078;18.248;2023-05-22T06:49:20;101644.66;;;43.25;16.60
38163;BME280;23977;53.078;18.248;2023-05-22T06:51:46;101665.13;;;43.10;16.62
38163;BME280;23977;53.078;18.248;2023-05-22T06:54:12;101659.69;;;44.23;15.55
38163;BME280;23977;53.078;18.248;2023-05-22T06:56:41;101632.19;;;43.38;16.41
38163;BME280;23977;53.078;18.248;2023-05-22T06:59:09;101631.56;;;44.00;15.65
38163;BME280;23977;53.078;18.248;2023-05-22T07:01:34;101609.25;;;42.85;16.05
38163;BME280;23977;53.078;18.248;2023-05-22T07:04:01;101609.03;;;45.05;14.14
38163;BME280;23977;53.078;18.248;2023-05-22T07:06:33;101639.84;;;44.32;15.40
38163;BME280;23977;53.078;18.248;2023-05-22T07:09:04;101638.28;;;43.60;15.61
38163;BME280;23977;53.078;18.248;2023-05-22T07:11:30;101613.59;;;42.66;15.57
38163;BME280;23977;53.078;18.248;2023-05-22T07:13:56;101613.81;;;42.45;16.03
38163;BME280;23977;53.078;18.248;2023-05-22T07:16:22;101610.41;;;41.95;16.47
38163;BME280;23977;53.078;18.248;2023-05-22T07:18:48;101621.09;;;43.97;15.23
38163;BME280;23977;53.078;18.248;2023-05-22T07:21:13;101610.63;;;42.91;15.27
38163;BME280;23977;53.078;18.248;2023-05-22T07:23:39;101599.53;;;43.82;15.17
38163;BME280;23977;53.078;18.248;2023-05-22T07:26:06;101625.81;;;44.12;14.76
38163;BME280;23977;53.078;18.248;2023-05-22T07:28:32;101597.81;;;43.77;14.08
38163;BME280;23977;53.078;18.248;2023-05-22T07:30:57;101635.22;;;44.86;13.33
38163;BME280;23977;53.078;18.248;2023-05-22T07:33:24;101604.38;;;44.89;13.53
38163;BME280;23977;53.078;18.248;2023-05-22T07:35:50;101579.09;;;45.43;13.08
38163;BME280;23977;53.078;18.248;2023-05-22T07:38:16;101621.91;;;45.33;14.39
38163;BME280;23977;53.078;18.248;2023-05-22T07:40:42;101629.78;;;46.11;13.33
38163;BME280;23977;53.078;18.248;2023-05-22T07:43:08;101603.50;;;45.66;13.11
38163;BME280;23977;53.078;18.248;2023-05-22T07:45:33;101625.25;;;45.69;13.59
38163;BME280;23977;53.078;18.248;2023-05-22T07:47:59;101612.72;;;45.96;13.17
38163;BME280;23977;53.078;18.248;2023-05-22T07:50:26;101595.25;;;46.96;12.98
38163;BME280;23977;53.078;18.248;2023-05-22T07:52:52;101597.06;;;48.35;12.53
38163;BME280;23977;53.078;18.248;2023-05-22T07:55:18;101596.19;;;49.43;11.58
38163;BME280;23977;53.078;18.248;2023-05-22T07:57:44;101582.97;;;48.46;11.79
38163;BME280;23977;53.078;18.248;2023-05-22T08:00:10;101601.25;;;47.57;12.15
38163;BME280;23977;53.078;18.248;2023-05-22T08:02:39;101612.78;;;48.33;11.79
38163;BME280;23977;53.078;18.248;2023-05-22T08:05:06;101589.41;;;48.29;11.89
38163;BME280;23977;53.078;18.248;2023-05-22T08:07:32;101597.44;;;48.09;12.76
38163;BME280;23977;53.078;18.248;2023-05-22T08:10:05;101606.88;;;46.91;12.18
38163;BME280;23977;53.078;18.248;2023-05-22T08:12:32;101589.47;;;51.39;11.08
38163;BME280;23977;53.078;18.248;2023-05-22T08:14:57;101596.81;;;50.53;11.09
38163;BME280;23977;53.078;18.248;2023-05-22T08:17:23;101593.41;;;50.17;11.11
38163;BME280;23977;53.078;18.248;2023-05-22T08:19:48;101592.22;;;49.19;11.05
38163;BME280;23977;53.078;18.248;2023-05-22T08:22:14;101580.53;;;49.17;11.78
38163;BME280;23977;53.078;18.248;2023-05-22T08:24:40;101577.44;;;50.45;10.92
38163;BME280;23977;53.078;18.248;2023-05-22T08:27:05;101593.47;;;49.11;11.02
38163;BME280;23977;53.078;18.248;2023-05-22T08:29:31;101552.91;;;49.60;10.96
38163;BME280;23977;53.078;18.248;2023-05-22T08:31:57;101586.75;;;49.78;10.22
38163;BME280;23977;53.078;18.248;2023-05-22T08:34:23;101578.25;;;50.42;9.88
38163;BME280;23977;53.078;18.248;2023-05-22T08:36:48;101552.09;;;49.56;10.35
38163;BME280;23977;53.078;18.248;2023-05-22T08:39:14;101576.59;;;50.55;10.05
38163;BME280;23977;53.078;18.248;2023-05-22T08:41:40;101575.56;;;49.53;10.20
38163;BME280;23977;53.078;18.248;2023-05-22T08:44:09;101575.63;;;51.11;9.78
38163;BME280;23977;53.078;18.248;2023-05-22T08:46:35;101574.91;;;50.58;9.21
38163;BME280;23977;53.078;18.248;2023-05-22T08:49:02;101573.78;;;49.88;10.01
38163;BME280;23977;53.078;18.248;2023-05-22T08:51:29;101568.78;;;49.25;10.36
38163;BME280;23977;53.078;18.248;2023-05-22T08:53:58;101564.59;;;51.81;9.34
38163;BME280;23977;53.078;18.248;2023-05-22T08:56:26;101564.59;;;51.81;9.08
38163;BME280;23977;53.078;18.248;2023-05-22T08:58:51;101559.44;;;53.75;8.67
38163;BME280;23977;53.078;18.248;2023-05-22T09:01:18;101558.94;;;52.80;8.84
38163;BME280;23977;53.078;18.248;2023-05-22T09:03:44;101560.88;;;50.85;9.05
38163;BME280;23977;53.078;18.248;2023-05-22T09:06:10;101550.69;;;48.33;9.99
38163;BME280;23977;53.078;18.248;2023-05-22T09:08:37;101554.44;;;49.72;9.48
38163;BME280;23977;53.078;18.248;2023-05-22T09:11:03;101546.50;;;49.49;9.93
38163;BME280;23977;53.078;18.248;2023-05-22T09:13:29;101536.81;;;49.36;9.76
38163;BME280;23977;53.078;18.248;2023-05-22T09:15:58;101539.25;;;49.37;10.45
38163;BME280;23977;53.078;18.248;2023-05-22T09:18:27;101545.66;;;46.40;11.09
38163;BME280;23977;53.078;18.248;2023-05-22T09:20:55;101542.66;;;44.70;12.08
38163;BME280;23977;53.078;18.248;2023-05-22T09:23:20;101538.88;;;45.69;11.70
38163;BME280;23977;53.078;18.248;2023-05-22T09:25:46;101532.47;;;47.03;11.25
38163;BME280;23977;53.078;18.248;2023-05-22T09:28:12;101533.09;;;45.89;11.71
38163;BME280;23977;53.078;18.248;2023-05-22T09:30:38;101541.56;;;45.32;12.12
38163;BME280;23977;53.078;18.248;2023-05-22T09:33:04;101537.25;;;44.58;12.04
38163;BME280;23977;53.078;18.248;2023-05-22T09:35:31;101537.94;;;44.74;12.03
38163;BME280;23977;53.078;18.248;2023-05-22T09:37:57;101524.19;;;46.65;11.84
38163;BME280;23977;53.078;18.248;2023-05-22T09:40:23;101528.72;;;45.00;12.00
38163;BME280;23977;53.078;18.248;2023-05-22T09:42:51;101517.63;;;45.11;11.78
38163;BME280;23977;53.078;18.248;2023-05-22T09:45:18;101518.53;;;44.19;12.02
38163;BME280;23977;53.078;18.248;2023-05-22T09:47:47;101518.44;;;44.15;11.90
38163;BME280;23977;53.078;18.248;2023-05-22T09:50:12;101513.63;;;44.59;12.16
38163;BME280;23977;53.078;18.248;2023-05-22T09:52:38;101516.13;;;43.98;12.56
38163;BME280;23977;53.078;18.248;2023-05-22T09:55:04;101507.63;;;43.94;12.04
38163;BME280;23977;53.078;18.248;2023-05-22T09:57:31;101507.56;;;43.52;12.24
38163;BME280;23977;53.078;18.248;2023-05-22T09:59:58;101514.47;;;41.51;13.54
38163;BME280;23977;53.078;18.248;2023-05-22T10:02:25;101504.78;;;42.33;13.72
38163;BME280;23977;53.078;18.248;2023-05-22T10:04:51;101498.47;;;41.92;14.12
38163;BME280;23977;53.078;18.248;2023-05-22T10:07:21;101500.66;;;40.80;14.15
38163;BME280;23977;53.078;18.248;2023-05-22T10:09:51;101495.94;;;39.56;15.24
38163;BME280;23977;53.078;18.248;2023-05-22T10:12:51;101507.88;;;36.83;16.20
38163;BME280;23977;53.078;18.248;2023-05-22T10:16:23;101293.97;;;32.73;19.13
38163;BME280;23977;53.078;18.248;2023-05-22T10:18:51;101501.34;;;32.31;19.98
38163;BME280;23977;53.078;18.248;2023-05-22T10:37:39;101497.06;;;28.87;24.07
38163;BME280;23977;53.078;18.248;2023-05-22T10:40:21;101260.53;;;26.73;24.98
38163;BME280;23977;53.078;18.248;2023-05-22T10:43:17;101233.56;;;26.10;25.27
38163;BME280;23977;53.078;18.248;2023-05-22T11:29:38;101456.81;;;26.52;26.81
38163;BME280;23977;53.078;18.248;2023-05-22T11:33:23;101450.38;;;26.98;27.66
38163;BME280;23977;53.078;18.248;2023-05-22T11:41:09;101450.47;;;26.64;27.13
38163;BME280;23977;53.078;18.248;2023-05-22T12:08:55;101433.72;;;26.77;27.03
38163;BME280;23977;53.078;18.248;2023-05-22T12:18:42;101413.63;;;26.66;27.49
38163;BME280;23977;53.078;18.248;2023-05-22T12:21:53;101417.69;;;26.64;27.36
38163;BME280;23977;53.078;18.248;2023-05-22T12:39:31;101403.00;;;26.87;27.95
38163;BME280;23977;53.078;18.248;2023-05-22T12:42:35;101206.38;;;25.08;26.89
38163;BME280;23977;53.078;18.248;2023-05-22T12:45:13;101268.19;;;25.25;27.81
38163;BME280;23977;53.078;18.248;2023-05-22T12:47:58;101397.56;;;25.97;27.57
38163;BME280;23977;53.078;18.248;2023-05-22T12:50:48;101324.53;;;25.36;28.23
38163;BME280;23977;53.078;18.248;2023-05-22T12:53:24;101170.91;;;24.46;28.52
38163;BME280;23977;53.078;18.248;2023-05-22T12:55:58;101173.88;;;24.44;28.08
38163;BME280;23977;53.078;18.248;2023-05-22T12:58:28;101381.75;;;25.82;28.28
38163;BME280;23977;53.078;18.248;2023-05-22T13:00:56;101197.97;;;24.81;28.59
38163;BME280;23977;53.078;18.248;2023-05-22T13:03:24;101313.09;;;25.68;28.12
38163;BME280;23977;53.078;18.248;2023-05-22T13:05:52;101380.66;;;26.34;28.25
38163;BME280;23977;53.078;18.248;2023-05-22T13:08:26;101315.56;;;25.87;27.62
38163;BME280;23977;53.078;18.248;2023-05-22T13:10:57;101366.72;;;26.52;27.10
38163;BME280;23977;53.078;18.248;2023-05-22T13:13:32;101377.06;;;26.28;27.97
38163;BME280;23977;53.078;18.248;2023-05-22T13:16:43;101303.00;;;25.85;28.58
38163;BME280;23977;53.078;18.248;2023-05-22T13:19:23;101131.25;;;24.62;28.69
38163;BME280;23977;53.078;18.248;2023-05-22T13:21:50;101170.03;;;24.86;27.85
38163;BME280;23977;53.078;18.248;2023-05-22T13:24:20;101290.94;;;25.47;28.01
38163;BME280;23977;53.078;18.248;2023-05-22T13:27:11;101364.81;;;25.80;28.24
38163;BME280;23977;53.078;18.248;2023-05-22T13:30:14;101372.13;;;26.08;28.66
38163;BME280;23977;53.078;18.248;2023-05-22T13:32:40;101354.88;;;25.91;28.29
38163;BME280;23977;53.078;18.248;2023-05-22T13:35:16;101165.44;;;24.58;28.35
38163;BME280;23977;53.078;18.248;2023-05-22T13:37:45;101357.38;;;25.92;27.87
38163;BME280;23977;53.078;18.248;2023-05-22T13:40:47;101280.41;;;25.22;28.26
38163;BME280;23977;53.078;18.248;2023-05-22T13:43:23;101345.13;;;25.78;28.12
38163;BME280;23977;53.078;18.248;2023-05-22T13:46:57;101358.19;;;25.93;28.35
38163;BME280;23977;53.078;18.248;2023-05-22T13:49:43;101245.00;;;25.22;28.22
38163;BME280;23977;53.078;18.248;2023-05-22T13:52:25;101132.72;;;24.41;28.61
38163;BME280;23977;53.078;18.248;2023-05-22T13:54:58;101279.00;;;25.20;28.52
38163;BME280;23977;53.078;18.248;2023-05-22T13:57:31;101101.66;;;24.36;28.72
38163;BME280;23977;53.078;18.248;2023-05-22T14:00:06;101147.16;;;24.70;29.12
38163;BME280;23977;53.078;18.248;2023-05-22T14:02:35;101215.34;;;25.09;28.15
38163;BME280;23977;53.078;18.248;2023-05-22T14:05:03;101145.09;;;24.60;29.21
38163;BME280;23977;53.078;18.248;2023-05-22T14:07:31;101228.00;;;25.15;28.19
38163;BME280;23977;53.078;18.248;2023-05-22T14:09:57;101157.59;;;24.61;28.19
38163;BME280;23977;53.078;18.248;2023-05-22T14:12:23;101188.72;;;24.65;28.57
38163;BME280;23977;53.078;18.248;2023-05-22T14:14:51;101326.53;;;25.58;28.95
38163;BME280;23977;53.078;18.248;2023-05-22T14:17:18;101338.38;;;25.63;28.48
38163;BME280;23977;53.078;18.248;2023-05-22T14:19:51;101240.28;;;25.18;28.76
38163;BME280;23977;53.078;18.248;2023-05-22T14:22:18;101145.75;;;24.67;29.76
38163;BME280;23977;53.078;18.248;2023-05-22T14:24:46;101159.63;;;24.83;28.61
38163;BME280;23977;53.078;18.248;2023-05-22T14:27:29;101096.06;;;24.43;28.90
38163;BME280;23977;53.078;18.248;2023-05-22T14:30:16;101340.53;;;25.78;28.64
38163;BME280;23977;53.078;18.248;2023-05-22T14:41:16;101110.97;;;24.12;29.47
38163;BME280;23977;53.078;18.248;2023-05-22T14:57:17;101080.84;;;23.49;29.41
38163;BME280;23977;53.078;18.248;2023-05-22T15:01:07;101303.84;;;25.06;28.95
38163;BME280;23977;53.078;18.248;2023-05-22T15:19:22;101146.97;;;23.90;30.00
38163;BME280;23977;53.078;18.248;2023-05-22T15:23:01;101294.19;;;24.58;30.39
38163;BME280;23977;53.078;18.248;2023-05-22T15:26:53;101293.13;;;24.35;30.18
38163;BME280;23977;53.078;18.248;2023-05-22T15:45:39;101261.31;;;25.05;29.85
38163;BME280;23977;53.078;18.248;2023-05-22T15:52:44;101260.34;;;24.83;29.57
38163;BME280;23977;53.078;18.248;2023-05-22T16:01:53;101262.06;;;24.72;29.93
38163;BME280;23977;53.078;18.248;2023-05-22T16:49:25;101254.69;;;23.37;34.15